Terminal Aerodrome Forecast
Issued by NWS

Home | Current Version | Previous Version | Text Only | Print | Product List | Glossary On
Versions: 1 2 3 4 5 6 7 8 9 10 11 12 13 14 15 16 17 18 19 20 21
000
FTAK31 PANC 261139
TAFACD
TAF
PACD 261139Z 2612/2712 14012KT P6SM VCSH FEW010 SCT025 OVC070
      TEMPO 2612/2615 P6SM -SHRA SCT010 BKN025 OVC060
     FM261500 15012KT P6SM -SHRA SCT015 BKN025 OVC050
     FM262000 16015KT P6SM -SHRA SCT025 OVC035
     FM270400 15010KT P6SM SCT035 OVC050=

USA.gov is the U.S. government's official web portal to all federal, state and local government web resources and services.